sensor_id;sensor_type;location;lat;lon;timestamp;pressure;altitude;pressure_sealevel;temperature
69186;BMP280;56298;49.246;9.410;2023-04-24T00:01:10;98416.94;;;12.35
69186;BMP280;56298;49.246;9.410;2023-04-24T00:03:36;98415.00;;;12.39
69186;BMP280;56298;49.246;9.410;2023-04-24T00:06:02;98410.69;;;12.38
69186;BMP280;56298;49.246;9.410;2023-04-24T00:08:27;98407.94;;;12.38
69186;BMP280;56298;49.246;9.410;2023-04-24T00:10:53;98407.91;;;12.46
69186;BMP280;56298;49.246;9.410;2023-04-24T00:13:18;98402.78;;;12.40
69186;BMP280;56298;49.246;9.410;2023-04-24T00:15:43;98401.63;;;12.42
69186;BMP280;56298;49.246;9.410;2023-04-24T00:18:08;98406.34;;;12.56
69186;BMP280;56298;49.246;9.410;2023-04-24T00:20:34;98389.47;;;12.57
69186;BMP280;56298;49.246;9.410;2023-04-24T00:23:00;98392.22;;;12.50
69186;BMP280;56298;49.246;9.410;2023-04-24T00:25:26;98402.03;;;12.51
69186;BMP280;56298;49.246;9.410;2023-04-24T00:27:51;98389.09;;;12.44
69186;BMP280;56298;49.246;9.410;2023-04-24T00:30:16;98393.41;;;12.45
69186;BMP280;56298;49.246;9.410;2023-04-24T00:32:41;98394.16;;;12.35
69186;BMP280;56298;49.246;9.410;2023-04-24T00:35:07;98397.31;;;12.37
69186;BMP280;56298;49.246;9.410;2023-04-24T00:37:32;98396.50;;;12.36
69186;BMP280;56298;49.246;9.410;2023-04-24T00:39:57;98396.13;;;12.38
69186;BMP280;56298;49.246;9.410;2023-04-24T00:42:23;98404.00;;;12.39
69186;BMP280;56298;49.246;9.410;2023-04-24T00:44:49;98404.78;;;12.40
69186;BMP280;56298;49.246;9.410;2023-04-24T00:47:15;98399.28;;;12.47
69186;BMP280;56298;49.246;9.410;2023-04-24T00:49:40;98385.94;;;12.46
69186;BMP280;56298;49.246;9.410;2023-04-24T00:52:05;98396.53;;;12.40
69186;BMP280;56298;49.246;9.410;2023-04-24T00:54:34;98394.53;;;12.40
69186;BMP280;56298;49.246;9.410;2023-04-24T00:56:59;98394.56;;;12.48
69186;BMP280;56298;49.246;9.410;2023-04-24T00:59:26;98400.03;;;12.26
69186;BMP280;56298;49.246;9.410;2023-04-24T01:01:51;98396.06;;;12.12
69186;BMP280;56298;49.246;9.410;2023-04-24T01:04:17;98394.09;;;12.02
69186;BMP280;56298;49.246;9.410;2023-04-24T01:06:44;98390.16;;;12.00
69186;BMP280;56298;49.246;9.410;2023-04-24T01:09:11;98394.09;;;11.98
69186;BMP280;56298;49.246;9.410;2023-04-24T01:11:37;98387.03;;;12.01
69186;BMP280;56298;49.246;9.410;2023-04-24T01:14:03;98368.97;;;12.00
69186;BMP280;56298;49.246;9.410;2023-04-24T01:16:29;98370.97;;;12.18
69186;BMP280;56298;49.246;9.410;2023-04-24T01:18:54;98369.38;;;12.20
69186;BMP280;56298;49.246;9.410;2023-04-24T01:21:20;98374.50;;;12.22
69186;BMP280;56298;49.246;9.410;2023-04-24T01:23:48;98368.63;;;12.23
69186;BMP280;56298;49.246;9.410;2023-04-24T01:26:15;98372.56;;;12.30
69186;BMP280;56298;49.246;9.410;2023-04-24T01:28:41;98368.63;;;12.27
69186;BMP280;56298;49.246;9.410;2023-04-24T01:31:06;98369.41;;;12.28
69186;BMP280;56298;49.246;9.410;2023-04-24T01:33:32;98366.69;;;12.31
69186;BMP280;56298;49.246;9.410;2023-04-24T01:35:57;98366.28;;;12.29
69186;BMP280;56298;49.246;9.410;2023-04-24T01:38:22;98371.00;;;12.36
69186;BMP280;56298;49.246;9.410;2023-04-24T01:40:49;98364.72;;;12.35
69186;BMP280;56298;49.246;9.410;2023-04-24T01:43:15;98363.53;;;12.40
69186;BMP280;56298;49.246;9.410;2023-04-24T01:45:40;98369.03;;;12.36
69186;BMP280;56298;49.246;9.410;2023-04-24T01:48:06;98356.06;;;12.40
69186;BMP280;56298;49.246;9.410;2023-04-24T01:50:31;98357.66;;;12.31
69186;BMP280;56298;49.246;9.410;2023-04-24T01:52:56;98347.03;;;12.29
69186;BMP280;56298;49.246;9.410;2023-04-24T01:55:22;98345.84;;;12.23
69186;BMP280;56298;49.246;9.410;2023-04-24T01:57:47;98349.41;;;12.16
69186;BMP280;56298;49.246;9.410;2023-04-24T02:00:13;98350.16;;;12.13
69186;BMP280;56298;49.246;9.410;2023-04-24T02:02:39;98352.50;;;12.07
69186;BMP280;56298;49.246;9.410;2023-04-24T02:05:08;98352.09;;;12.12
69186;BMP280;56298;49.246;9.410;2023-04-24T02:07:34;98344.69;;;12.17
69186;BMP280;56298;49.246;9.410;2023-04-24T02:09:59;98345.47;;;12.17
69186;BMP280;56298;49.246;9.410;2023-04-24T02:12:24;98345.06;;;12.19
69186;BMP280;56298;49.246;9.410;2023-04-24T02:14:50;98345.47;;;12.17
69186;BMP280;56298;49.246;9.410;2023-04-24T02:17:15;98349.38;;;12.23
69186;BMP280;56298;49.246;9.410;2023-04-24T02:19:41;98341.53;;;12.18
69186;BMP280;56298;49.246;9.410;2023-04-24T02:22:06;98335.25;;;12.21
69186;BMP280;56298;49.246;9.410;2023-04-24T02:24:32;98343.91;;;12.16
69186;BMP280;56298;49.246;9.410;2023-04-24T02:26:57;98341.50;;;12.00
69186;BMP280;56298;49.246;9.410;2023-04-24T02:29:23;98338.72;;;11.96
69186;BMP280;56298;49.246;9.410;2023-04-24T02:31:48;98348.53;;;11.90
69186;BMP280;56298;49.246;9.410;2023-04-24T02:34:13;98343.06;;;11.97
69186;BMP280;56298;49.246;9.410;2023-04-24T02:36:38;98344.25;;;12.07
69186;BMP280;56298;49.246;9.410;2023-04-24T02:39:04;98341.88;;;12.06
69186;BMP280;56298;49.246;9.410;2023-04-24T02:41:29;98348.56;;;12.05
69186;BMP280;56298;49.246;9.410;2023-04-24T02:43:57;98342.69;;;12.03
69186;BMP280;56298;49.246;9.410;2023-04-24T02:46:23;98339.91;;;11.92
69186;BMP280;56298;49.246;9.410;2023-04-24T02:48:48;98341.09;;;11.98
69186;BMP280;56298;49.246;9.410;2023-04-24T02:51:13;98336.78;;;12.01
69186;BMP280;56298;49.246;9.410;2023-04-24T02:53:39;98338.34;;;11.98
69186;BMP280;56298;49.246;9.410;2023-04-24T02:56:04;98333.66;;;12.06
69186;BMP280;56298;49.246;9.410;2023-04-24T02:58:29;98327.38;;;11.94
69186;BMP280;56298;49.246;9.410;2023-04-24T03:00:55;98330.91;;;11.95
69186;BMP280;56298;49.246;9.410;2023-04-24T03:03:21;98323.41;;;11.84
69186;BMP280;56298;49.246;9.410;2023-04-24T03:05:46;98324.56;;;11.73
69186;BMP280;56298;49.246;9.410;2023-04-24T03:08:12;98326.47;;;11.65
69186;BMP280;56298;49.246;9.410;2023-04-24T03:10:37;98319.03;;;11.65
69186;BMP280;56298;49.246;9.410;2023-04-24T03:13:03;98318.22;;;11.58
69186;BMP280;56298;49.246;9.410;2023-04-24T03:15:28;98327.63;;;11.57
69186;BMP280;56298;49.246;9.410;2023-04-24T03:17:54;98329.59;;;11.60
69186;BMP280;56298;49.246;9.410;2023-04-24T03:20:20;98330.41;;;11.64
69186;BMP280;56298;49.246;9.410;2023-04-24T03:22:45;98333.16;;;11.64
69186;BMP280;56298;49.246;9.410;2023-04-24T03:25:10;98336.72;;;11.64
69186;BMP280;56298;49.246;9.410;2023-04-24T03:27:36;98331.22;;;11.68
69186;BMP280;56298;49.246;9.410;2023-04-24T03:30:01;98325.34;;;11.73
69186;BMP280;56298;49.246;9.410;2023-04-24T03:32:27;98322.56;;;11.66
69186;BMP280;56298;49.246;9.410;2023-04-24T03:34:52;98324.91;;;11.57
69186;BMP280;56298;49.246;9.410;2023-04-24T03:37:18;98323.69;;;11.50
69186;BMP280;56298;49.246;9.410;2023-04-24T03:39:43;98319.75;;;11.51
69186;BMP280;56298;49.246;9.410;2023-04-24T03:42:09;98322.94;;;11.57
69186;BMP280;56298;49.246;9.410;2023-04-24T03:44:35;98322.56;;;11.66
69186;BMP280;56298;49.246;9.410;2023-04-24T03:47:00;98326.09;;;11.66
69186;BMP280;56298;49.246;9.410;2023-04-24T03:49:25;98328.47;;;11.75
69186;BMP280;56298;49.246;9.410;2023-04-24T03:51:51;98321.03;;;11.83
69186;BMP280;56298;49.246;9.410;2023-04-24T03:54:17;98317.91;;;11.77
69186;BMP280;56298;49.246;9.410;2023-04-24T03:56:42;98322.22;;;11.82
69186;BMP280;56298;49.246;9.410;2023-04-24T03:59:08;98318.31;;;11.90
69186;BMP280;56298;49.246;9.410;2023-04-24T04:01:33;98317.53;;;11.90
69186;BMP280;56298;49.246;9.410;2023-04-24T04:04:01;98319.09;;;11.80
69186;BMP280;56298;49.246;9.410;2023-04-24T04:06:26;98323.00;;;11.82
69186;BMP280;56298;49.246;9.410;2023-04-24T04:08:52;98320.66;;;11.81
69186;BMP280;56298;49.246;9.410;2023-04-24T04:11:17;98336.00;;;11.86
69186;BMP280;56298;49.246;9.410;2023-04-24T04:13:42;98332.78;;;11.69
69186;BMP280;56298;49.246;9.410;2023-04-24T04:16:08;98338.25;;;11.62
69186;BMP280;56298;49.246;9.410;2023-04-24T04:18:34;98355.88;;;11.53
69186;BMP280;56298;49.246;9.410;2023-04-24T04:20:59;98353.03;;;11.32
69186;BMP280;56298;49.246;9.410;2023-04-24T04:23:26;98362.38;;;11.23
69186;BMP280;56298;49.246;9.410;2023-04-24T04:25:51;98370.06;;;10.99
69186;BMP280;56298;49.246;9.410;2023-04-24T04:28:16;98391.44;;;10.76
69186;BMP280;56298;49.246;9.410;2023-04-24T04:30:44;98411.00;;;10.74
69186;BMP280;56298;49.246;9.410;2023-04-24T04:33:10;98408.59;;;10.65
69186;BMP280;56298;49.246;9.410;2023-04-24T04:35:35;98413.59;;;10.56
69186;BMP280;56298;49.246;9.410;2023-04-24T04:38:01;98419.47;;;10.58
69186;BMP280;56298;49.246;9.410;2023-04-24T04:40:26;98428.00;;;10.49
69186;BMP280;56298;49.246;9.410;2023-04-24T04:42:53;98434.50;;;10.34
69186;BMP280;56298;49.246;9.410;2023-04-24T04:45:19;98429.91;;;10.41
69186;BMP280;56298;49.246;9.410;2023-04-24T04:47:46;98442.53;;;10.50
69186;BMP280;56298;49.246;9.410;2023-04-24T04:50:11;98436.59;;;10.48
69186;BMP280;56298;49.246;9.410;2023-04-24T04:52:36;98440.63;;;10.57
69186;BMP280;56298;49.246;9.410;2023-04-24T04:55:02;98449.19;;;10.52
69186;BMP280;56298;49.246;9.410;2023-04-24T04:57:27;98448.84;;;10.57
69186;BMP280;56298;49.246;9.410;2023-04-24T04:59:53;98450.31;;;10.51
69186;BMP280;56298;49.246;9.410;2023-04-24T05:02:18;98457.34;;;10.49
69186;BMP280;56298;49.246;9.410;2023-04-24T05:04:43;98455.72;;;10.40
69186;BMP280;56298;49.246;9.410;2023-04-24T05:07:10;98455.75;;;10.44
69186;BMP280;56298;49.246;9.410;2023-04-24T05:09:35;98456.28;;;10.57
69186;BMP280;56298;49.246;9.410;2023-04-24T05:12:00;98470.06;;;10.68
69186;BMP280;56298;49.246;9.410;2023-04-24T05:14:27;98477.13;;;10.69
69186;BMP280;56298;49.246;9.410;2023-04-24T05:16:52;98471.66;;;10.69
69186;BMP280;56298;49.246;9.410;2023-04-24T05:19:17;98474.41;;;10.69
69186;BMP280;56298;49.246;9.410;2023-04-24T05:21:43;98488.44;;;10.64
69186;BMP280;56298;49.246;9.410;2023-04-24T05:24:08;98489.56;;;10.59
69186;BMP280;56298;49.246;9.410;2023-04-24T05:26:33;98499.63;;;10.48
69186;BMP280;56298;49.246;9.410;2023-04-24T05:28:58;98496.97;;;10.55
69186;BMP280;56298;49.246;9.410;2023-04-24T05:31:24;98513.69;;;10.46
69186;BMP280;56298;49.246;9.410;2023-04-24T05:33:50;98517.44;;;10.31
69186;BMP280;56298;49.246;9.410;2023-04-24T05:36:15;98520.13;;;10.27
69186;BMP280;56298;49.246;9.410;2023-04-24T05:38:40;98519.28;;;10.19
69186;BMP280;56298;49.246;9.410;2023-04-24T05:41:06;98527.09;;;10.21
69186;BMP280;56298;49.246;9.410;2023-04-24T05:43:31;98526.41;;;10.27
69186;BMP280;56298;49.246;9.410;2023-04-24T05:45:56;98526.91;;;11.09
69186;BMP280;56298;49.246;9.410;2023-04-24T05:48:22;98532.88;;;11.74
69186;BMP280;56298;49.246;9.410;2023-04-24T05:50:48;98543.41;;;12.32
69186;BMP280;56298;49.246;9.410;2023-04-24T05:53:13;98542.78;;;12.96
69186;BMP280;56298;49.246;9.410;2023-04-24T05:55:38;98538.41;;;12.74
69186;BMP280;56298;49.246;9.410;2023-04-24T05:58:04;98548.13;;;12.42
69186;BMP280;56298;49.246;9.410;2023-04-24T06:00:29;98561.25;;;13.21
69186;BMP280;56298;49.246;9.410;2023-04-24T06:02:55;98567.94;;;13.46
69186;BMP280;56298;49.246;9.410;2023-04-24T06:05:20;98560.03;;;13.80
69186;BMP280;56298;49.246;9.410;2023-04-24T06:07:45;98559.38;;;14.44
69186;BMP280;56298;49.246;9.410;2023-04-24T06:10:11;98558.28;;;14.98
69186;BMP280;56298;49.246;9.410;2023-04-24T06:12:36;98559.09;;;14.94
69186;BMP280;56298;49.246;9.410;2023-04-24T06:15:03;98555.81;;;15.10
69186;BMP280;56298;49.246;9.410;2023-04-24T06:17:28;98556.97;;;15.59
69186;BMP280;56298;49.246;9.410;2023-04-24T06:19:53;98554.94;;;16.32
69186;BMP280;56298;49.246;9.410;2023-04-24T06:22:18;98556.16;;;16.59
69186;BMP280;56298;49.246;9.410;2023-04-24T06:24:44;98560.34;;;17.42
69186;BMP280;56298;49.246;9.410;2023-04-24T06:27:09;98547.34;;;18.20
69186;BMP280;56298;49.246;9.410;2023-04-24T06:29:36;98551.34;;;18.35
69186;BMP280;56298;49.246;9.410;2023-04-24T06:32:01;98547.06;;;18.30
69186;BMP280;56298;49.246;9.410;2023-04-24T06:34:26;98553.81;;;18.99
69186;BMP280;56298;49.246;9.410;2023-04-24T06:36:52;98542.53;;;18.90
69186;BMP280;56298;49.246;9.410;2023-04-24T06:39:17;98549.13;;;17.49
69186;BMP280;56298;49.246;9.410;2023-04-24T06:41:42;98546.72;;;15.59
69186;BMP280;56298;49.246;9.410;2023-04-24T06:44:07;98548.78;;;14.42
69186;BMP280;56298;49.246;9.410;2023-04-24T06:46:33;98548.31;;;13.29
69186;BMP280;56298;49.246;9.410;2023-04-24T06:48:58;98554.09;;;12.66
69186;BMP280;56298;49.246;9.410;2023-04-24T06:51:24;98565.44;;;12.53
69186;BMP280;56298;49.246;9.410;2023-04-24T06:53:51;98555.56;;;12.42
69186;BMP280;56298;49.246;9.410;2023-04-24T06:56:17;98566.75;;;13.61
69186;BMP280;56298;49.246;9.410;2023-04-24T06:58:42;98558.34;;;14.87
69186;BMP280;56298;49.246;9.410;2023-04-24T07:01:07;98550.63;;;14.63
69186;BMP280;56298;49.246;9.410;2023-04-24T07:03:32;98568.00;;;14.57
69186;BMP280;56298;49.246;9.410;2023-04-24T07:05:58;98555.16;;;14.17
69186;BMP280;56298;49.246;9.410;2023-04-24T07:08:23;98560.41;;;13.86
69186;BMP280;56298;49.246;9.410;2023-04-24T07:10:49;98565.56;;;13.77
69186;BMP280;56298;49.246;9.410;2023-04-24T07:13:15;98557.25;;;13.73
69186;BMP280;56298;49.246;9.410;2023-04-24T07:15:41;98542.00;;;13.43
69186;BMP280;56298;49.246;9.410;2023-04-24T07:18:06;98547.09;;;13.37
69186;BMP280;56298;49.246;9.410;2023-04-24T07:20:31;98549.84;;;13.01
69186;BMP280;56298;49.246;9.410;2023-04-24T07:22:58;98560.81;;;12.79
69186;BMP280;56298;49.246;9.410;2023-04-24T07:25:23;98564.78;;;12.89
69186;BMP280;56298;49.246;9.410;2023-04-24T07:27:48;98561.66;;;13.20
69186;BMP280;56298;49.246;9.410;2023-04-24T07:30:14;98551.47;;;13.24
69186;BMP280;56298;49.246;9.410;2023-04-24T07:32:39;98564.03;;;13.36
69186;BMP280;56298;49.246;9.410;2023-04-24T07:35:05;98564.69;;;13.98
69186;BMP280;56298;49.246;9.410;2023-04-24T07:37:30;98560.19;;;14.44
69186;BMP280;56298;49.246;9.410;2023-04-24T07:39:56;98568.06;;;14.46
69186;BMP280;56298;49.246;9.410;2023-04-24T07:42:21;98576.38;;;15.06
69186;BMP280;56298;49.246;9.410;2023-04-24T07:44:46;98579.66;;;15.39
69186;BMP280;56298;49.246;9.410;2023-04-24T07:47:13;98578.00;;;15.45
69186;BMP280;56298;49.246;9.410;2023-04-24T07:49:41;98584.38;;;14.89
69186;BMP280;56298;49.246;9.410;2023-04-24T07:52:06;98592.09;;;14.45
69186;BMP280;56298;49.246;9.410;2023-04-24T07:54:32;98598.81;;;14.44
69186;BMP280;56298;49.246;9.410;2023-04-24T07:56:57;98605.81;;;14.63
69186;BMP280;56298;49.246;9.410;2023-04-24T07:59:22;98602.13;;;14.88
69186;BMP280;56298;49.246;9.410;2023-04-24T08:01:48;98603.03;;;15.23
69186;BMP280;56298;49.246;9.410;2023-04-24T08:04:14;98617.81;;;14.99
69186;BMP280;56298;49.246;9.410;2023-04-24T08:06:39;98618.56;;;15.06
69186;BMP280;56298;49.246;9.410;2023-04-24T08:09:05;98623.13;;;14.71
69186;BMP280;56298;49.246;9.410;2023-04-24T08:11:30;98611.34;;;14.60
69186;BMP280;56298;49.246;9.410;2023-04-24T08:13:56;98619.22;;;14.65
69186;BMP280;56298;49.246;9.410;2023-04-24T08:16:22;98617.38;;;14.25
69186;BMP280;56298;49.246;9.410;2023-04-24T08:18:49;98611.91;;;14.18
69186;BMP280;56298;49.246;9.410;2023-04-24T08:21:14;98606.94;;;14.77
69186;BMP280;56298;49.246;9.410;2023-04-24T08:23:42;98609.13;;;15.91
69186;BMP280;56298;49.246;9.410;2023-04-24T08:26:07;98614.47;;;16.13
69186;BMP280;56298;49.246;9.410;2023-04-24T08:28:33;98619.25;;;16.71
69186;BMP280;56298;49.246;9.410;2023-04-24T08:30:58;98608.34;;;16.29
69186;BMP280;56298;49.246;9.410;2023-04-24T08:33:24;98615.81;;;15.56
69186;BMP280;56298;49.246;9.410;2023-04-24T08:35:49;98618.59;;;15.52
69186;BMP280;56298;49.246;9.410;2023-04-24T08:38:15;98630.16;;;15.39
69186;BMP280;56298;49.246;9.410;2023-04-24T08:40:41;98632.72;;;15.12
69186;BMP280;56298;49.246;9.410;2023-04-24T08:43:07;98626.16;;;14.88
69186;BMP280;56298;49.246;9.410;2023-04-24T08:45:33;98630.63;;;14.67
69186;BMP280;56298;49.246;9.410;2023-04-24T08:47:59;98625.66;;;14.25
69186;BMP280;56298;49.246;9.410;2023-04-24T08:50:25;98651.75;;;13.81
69186;BMP280;56298;49.246;9.410;2023-04-24T08:52:51;98657.63;;;13.39
69186;BMP280;56298;49.246;9.410;2023-04-24T08:55:19;98677.09;;;12.76
69186;BMP280;56298;49.246;9.410;2023-04-24T08:57:48;98676.75;;;12.07
69186;BMP280;56298;49.246;9.410;2023-04-24T09:00:15;98676.22;;;11.46
69186;BMP280;56298;49.246;9.410;2023-04-24T09:02:45;98669.00;;;11.30
69186;BMP280;56298;49.246;9.410;2023-04-24T09:05:12;98665.25;;;11.46
69186;BMP280;56298;49.246;9.410;2023-04-24T09:07:39;98672.69;;;11.90
69186;BMP280;56298;49.246;9.410;2023-04-24T09:10:08;98675.72;;;12.30
69186;BMP280;56298;49.246;9.410;2023-04-24T09:12:34;98684.09;;;12.52
69186;BMP280;56298;49.246;9.410;2023-04-24T09:15:00;98696.88;;;13.00
69186;BMP280;56298;49.246;9.410;2023-04-24T09:17:28;98681.25;;;13.37
69186;BMP280;56298;49.246;9.410;2023-04-24T09:19:56;98692.31;;;13.84
69186;BMP280;56298;49.246;9.410;2023-04-24T09:22:22;98683.25;;;14.09
69186;BMP280;56298;49.246;9.410;2023-04-24T09:24:47;98685.13;;;14.45
69186;BMP280;56298;49.246;9.410;2023-04-24T09:27:13;98682.63;;;14.79
69186;BMP280;56298;49.246;9.410;2023-04-24T09:29:53;98680.19;;;14.92
69186;BMP280;56298;49.246;9.410;2023-04-24T09:32:20;98663.28;;;14.79
69186;BMP280;56298;49.246;9.410;2023-04-24T09:35:14;98680.34;;;15.31
69186;BMP280;56298;49.246;9.410;2023-04-24T09:37:45;98674.34;;;15.39
69186;BMP280;56298;49.246;9.410;2023-04-24T09:40:19;98681.63;;;15.15
69186;BMP280;56298;49.246;9.410;2023-04-24T09:42:55;98677.00;;;14.98
69186;BMP280;56298;49.246;9.410;2023-04-24T09:45:22;98678.28;;;14.82
69186;BMP280;56298;49.246;9.410;2023-04-24T09:47:52;98689.50;;;14.17
69186;BMP280;56298;49.246;9.410;2023-04-24T09:50:18;98678.53;;;13.84
69186;BMP280;56298;49.246;9.410;2023-04-24T09:52:46;98693.88;;;13.60
69186;BMP280;56298;49.246;9.410;2023-04-24T09:55:20;98695.84;;;13.74
69186;BMP280;56298;49.246;9.410;2023-04-24T09:57:50;98698.59;;;13.77
69186;BMP280;56298;49.246;9.410;2023-04-24T10:00:27;98698.19;;;13.90
69186;BMP280;56298;49.246;9.410;2023-04-24T10:02:56;98699.34;;;14.25
69186;BMP280;56298;49.246;9.410;2023-04-24T10:05:29;98699.75;;;14.34
69186;BMP280;56298;49.246;9.410;2023-04-24T10:08:11;98700.44;;;14.53
69186;BMP280;56298;49.246;9.410;2023-04-24T10:10:44;98702.81;;;14.44
69186;BMP280;56298;49.246;9.410;2023-04-24T10:13:11;98715.81;;;14.58
69186;BMP280;56298;49.246;9.410;2023-04-24T10:15:37;98706.88;;;15.17
69186;BMP280;56298;49.246;9.410;2023-04-24T10:18:04;98705.13;;;14.71
69186;BMP280;56298;49.246;9.410;2023-04-24T10:20:31;98701.31;;;13.92
69186;BMP280;56298;49.246;9.410;2023-04-24T10:22:58;98715.47;;;13.36
69186;BMP280;56298;49.246;9.410;2023-04-24T10:25:26;98727.56;;;13.02
69186;BMP280;56298;49.246;9.410;2023-04-24T10:27:52;98727.88;;;12.86
69186;BMP280;56298;49.246;9.410;2023-04-24T10:30:19;98734.41;;;12.56
69186;BMP280;56298;49.246;9.410;2023-04-24T10:32:45;98735.19;;;12.53
69186;BMP280;56298;49.246;9.410;2023-04-24T10:35:15;98743.13;;;12.73
69186;BMP280;56298;49.246;9.410;2023-04-24T10:37:44;98743.63;;;12.93
69186;BMP280;56298;49.246;9.410;2023-04-24T10:40:10;98754.88;;;14.05
69186;BMP280;56298;49.246;9.410;2023-04-24T10:42:40;98745.28;;;14.79
69186;BMP280;56298;49.246;9.410;2023-04-24T10:45:06;98757.13;;;14.76
69186;BMP280;56298;49.246;9.410;2023-04-24T10:47:41;98745.75;;;14.70
69186;BMP280;56298;49.246;9.410;2023-04-24T10:50:10;98755.91;;;14.91
69186;BMP280;56298;49.246;9.410;2023-04-24T10:52:49;98748.06;;;14.79
69186;BMP280;56298;49.246;9.410;2023-04-24T10:55:41;98760.22;;;14.92
69186;BMP280;56298;49.246;9.410;2023-04-24T10:58:07;98757.88;;;14.94
69186;BMP280;56298;49.246;9.410;2023-04-24T11:00:32;98756.69;;;14.92
69186;BMP280;56298;49.246;9.410;2023-04-24T11:03:04;98743.09;;;15.30
69186;BMP280;56298;49.246;9.410;2023-04-24T11:08:43;98755.63;;;15.49
69186;BMP280;56298;49.246;9.410;2023-04-24T11:11:17;98754.41;;;16.07
69186;BMP280;56298;49.246;9.410;2023-04-24T11:16:28;98752.09;;;16.02
69186;BMP280;56298;49.246;9.410;2023-04-24T11:19:05;98749.06;;;16.27
69186;BMP280;56298;49.246;9.410;2023-04-24T11:21:43;98757.28;;;15.89
69186;BMP280;56298;49.246;9.410;2023-04-24T11:26:47;98771.75;;;14.54
69186;BMP280;56298;49.246;9.410;2023-04-24T11:29:13;98772.97;;;14.43
69186;BMP280;56298;49.246;9.410;2023-04-24T11:31:40;98764.34;;;14.41
69186;BMP280;56298;49.246;9.410;2023-04-24T11:34:14;98777.72;;;14.06
69186;BMP280;56298;49.246;9.410;2023-04-24T11:36:42;98783.59;;;13.79
69186;BMP280;56298;49.246;9.410;2023-04-24T11:39:07;98784.38;;;13.65
69186;BMP280;56298;49.246;9.410;2023-04-24T11:41:33;98802.81;;;13.43
69186;BMP280;56298;49.246;9.410;2023-04-24T11:43:59;98799.16;;;13.09
69186;BMP280;56298;49.246;9.410;2023-04-24T11:46:29;98815.50;;;12.80
69186;BMP280;56298;49.246;9.410;2023-04-24T11:48:56;98820.34;;;12.46
69186;BMP280;56298;49.246;9.410;2023-04-24T11:51:22;98822.81;;;12.09
69186;BMP280;56298;49.246;9.410;2023-04-24T11:53:48;98826.72;;;12.08
69186;BMP280;56298;49.246;9.410;2023-04-24T11:56:17;98827.41;;;12.39
69186;BMP280;56298;49.246;9.410;2023-04-24T11:58:44;98821.34;;;12.72
69186;BMP280;56298;49.246;9.410;2023-04-24T12:01:09;98820.31;;;12.98
69186;BMP280;56298;49.246;9.410;2023-04-24T12:03:35;98814.53;;;13.21
69186;BMP280;56298;49.246;9.410;2023-04-24T12:06:07;98812.25;;;13.34
69186;BMP280;56298;49.246;9.410;2023-04-24T12:08:33;98806.03;;;13.63
69186;BMP280;56298;49.246;9.410;2023-04-24T12:11:01;98814.34;;;14.50
69186;BMP280;56298;49.246;9.410;2023-04-24T12:13:27;98812.75;;;14.67
69186;BMP280;56298;49.246;9.410;2023-04-24T12:15:52;98807.03;;;15.29
69186;BMP280;56298;49.246;9.410;2023-04-24T12:18:17;98800.28;;;15.37
69186;BMP280;56298;49.246;9.410;2023-04-24T12:20:43;98803.09;;;15.22
69186;BMP280;56298;49.246;9.410;2023-04-24T12:23:08;98796.84;;;15.04
69186;BMP280;56298;49.246;9.410;2023-04-24T12:25:34;98802.84;;;14.88
69186;BMP280;56298;49.246;9.410;2023-04-24T12:28:10;98805.22;;;14.96
69186;BMP280;56298;49.246;9.410;2023-04-24T12:30:41;98798.88;;;14.85
69186;BMP280;56298;49.246;9.410;2023-04-24T12:33:09;98806.88;;;14.58
69186;BMP280;56298;49.246;9.410;2023-04-24T12:35:34;98805.34;;;14.28
69186;BMP280;56298;49.246;9.410;2023-04-24T12:38:12;98815.91;;;13.89
69186;BMP280;56298;49.246;9.410;2023-04-24T12:40:38;98827.44;;;13.06
69186;BMP280;56298;49.246;9.410;2023-04-24T12:43:14;98825.25;;;12.22
69186;BMP280;56298;49.246;9.410;2023-04-24T12:45:40;98836.63;;;12.20
69186;BMP280;56298;49.246;9.410;2023-04-24T12:48:05;98823.84;;;12.39
69186;BMP280;56298;49.246;9.410;2023-04-24T12:50:30;98816.16;;;12.63
69186;BMP280;56298;49.246;9.410;2023-04-24T12:52:56;98815.25;;;13.04
69186;BMP280;56298;49.246;9.410;2023-04-24T12:55:21;98819.44;;;13.72
69186;BMP280;56298;49.246;9.410;2023-04-24T12:57:46;98808.88;;;14.06
69186;BMP280;56298;49.246;9.410;2023-04-24T13:00:12;98820.66;;;14.07
69186;BMP280;56298;49.246;9.410;2023-04-24T13:02:38;98823.03;;;14.45
69186;BMP280;56298;49.246;9.410;2023-04-24T13:05:03;98826.06;;;14.98
69186;BMP280;56298;49.246;9.410;2023-04-24T13:07:28;98813.06;;;14.94
69186;BMP280;56298;49.246;9.410;2023-04-24T13:09:55;98818.78;;;15.47
69186;BMP280;56298;49.246;9.410;2023-04-24T13:12:20;98798.16;;;15.63
69186;BMP280;56298;49.246;9.410;2023-04-24T13:14:46;98803.34;;;15.53
69186;BMP280;56298;49.246;9.410;2023-04-24T13:17:12;98809.50;;;15.05
69186;BMP280;56298;49.246;9.410;2023-04-24T13:19:42;98794.91;;;15.08
69186;BMP280;56298;49.246;9.410;2023-04-24T13:22:09;98798.88;;;15.03
69186;BMP280;56298;49.246;9.410;2023-04-24T13:24:35;98798.50;;;14.90
69186;BMP280;56298;49.246;9.410;2023-04-24T13:27:00;98812.34;;;14.79
69186;BMP280;56298;49.246;9.410;2023-04-24T13:29:26;98805.22;;;14.89
69186;BMP280;56298;49.246;9.410;2023-04-24T13:31:52;98808.75;;;15.01
69186;BMP280;56298;49.246;9.410;2023-04-24T13:34:23;98811.47;;;15.08
69186;BMP280;56298;49.246;9.410;2023-04-24T13:36:50;98802.41;;;15.00
69186;BMP280;56298;49.246;9.410;2023-04-24T13:39:16;98810.81;;;14.60
69186;BMP280;56298;49.246;9.410;2023-04-24T13:41:41;98817.91;;;14.58
69186;BMP280;56298;49.246;9.410;2023-04-24T13:44:07;98807.66;;;14.73
69186;BMP280;56298;49.246;9.410;2023-04-24T13:46:33;98810.38;;;14.69
69186;BMP280;56298;49.246;9.410;2023-04-24T13:48:59;98815.09;;;14.83
69186;BMP280;56298;49.246;9.410;2023-04-24T13:51:27;98808.31;;;14.99
69186;BMP280;56298;49.246;9.410;2023-04-24T13:53:53;98805.63;;;14.73
69186;BMP280;56298;49.246;9.410;2023-04-24T13:56:18;98807.22;;;14.74
69186;BMP280;56298;49.246;9.410;2023-04-24T13:58:44;98802.47;;;14.82
69186;BMP280;56298;49.246;9.410;2023-04-24T14:01:09;98806.47;;;14.52
69186;BMP280;56298;49.246;9.410;2023-04-24T14:03:37;98810.41;;;14.44
69186;BMP280;56298;49.246;9.410;2023-04-24T14:06:02;98808.06;;;14.60
69186;BMP280;56298;49.246;9.410;2023-04-24T14:08:27;98799.75;;;14.67
69186;BMP280;56298;49.246;9.410;2023-04-24T14:10:53;98806.09;;;14.39
69186;BMP280;56298;49.246;9.410;2023-04-24T14:13:18;98796.25;;;14.23